Time,TemperatureF,DewpointF,PressureIn,WindDirection,WindDirectionDegrees,WindSpeedMPH,WindSpeedGustMPH,Humidity,HourlyPrecipIn,Conditions,Clouds,dailyrainin,SoftwareType,DateUTC
2013-02-02 00:00:00,67.0,56.5,31.20,ENE,77,3.0,5.0,69,0.00,,,0.00,Wunderground v.1.15,2013-02-02 05:00:00,
2013-02-02 00:01:00,67.1,56.6,31.19,ENE,70,3.0,5.0,69,0.00,,,0.00,Wunderground v.1.15,2013-02-02 05:01:00,
2013-02-02 00:03:00,67.2,56.7,31.19,ENE,65,2.0,6.0,69,0.00,,,0.00,Wunderground v.1.15,2013-02-02 05:03:00,
2013-02-02 00:09:00,67.3,56.0,31.19,NE,47,3.0,6.0,67,0.00,,,0.00,Wunderground v.1.15,2013-02-02 05:09:00,
2013-02-02 00:15:00,67.2,55.9,31.20,East,84,2.0,3.0,67,0.00,,,0.00,Wunderground v.1.15,2013-02-02 05:15:00,
2013-02-02 00:19:00,67.2,55.9,31.20,ESE,105,3.0,5.0,67,0.00,,,0.00,Wunderground v.1.15,2013-02-02 05:19:00,
2013-02-02 00:24:00,67.3,56.0,31.20,NE,47,2.0,3.0,67,0.00,,,0.00,Wunderground v.1.15,2013-02-02 05:24:00,
2013-02-02 00:30:00,67.4,56.5,31.20,ESE,110,2.0,3.0,68,0.00,,,0.00,Wunderground v.1.15,2013-02-02 05:30:00,
2013-02-02 00:36:00,67.3,58.0,31.20,NNE,22,3.0,5.0,72,0.00,,,0.00,Wunderground v.1.15,2013-02-02 05:36:00,
2013-02-02 00:41:00,66.2,58.4,31.20,NNW,330,4.0,4.0,76,0.00,,,0.00,Wunderground v.1.15,2013-02-02 05:41:00,
2013-02-02 00:47:00,65.4,58.7,31.20,North,359,4.0,6.0,79,0.00,,,0.00,Wunderground v.1.15,2013-02-02 05:47:00,
2013-02-02 00:52:00,64.9,58.9,31.20,NNW,344,4.0,4.0,81,0.00,,,0.00,Wunderground v.1.15,2013-02-02 05:52:00,
2013-02-02 00:58:00,64.5,58.9,31.19,NNE,18,3.0,5.0,82,0.00,,,0.00,Wunderground v.1.15,2013-02-02 05:58:00,
2013-02-02 01:04:00,64.2,58.6,31.20,NNE,22,4.0,5.0,82,0.00,,,0.00,Wunderground v.1.15,2013-02-02 06:04:00,
2013-02-02 01:09:00,63.9,58.6,31.20,NE,39,3.0,5.0,83,0.00,,,0.00,Wunderground v.1.15,2013-02-02 06:09:00,
2013-02-02 01:15:00,63.7,58.8,31.20,NE,44,3.0,5.0,84,0.00,,,0.00,Wunderground v.1.15,2013-02-02 06:15:00,
2013-02-02 01:20:00,63.6,58.7,31.20,NNW,337,4.0,4.0,84,0.00,,,0.00,Wunderground v.1.15,2013-02-02 06:20:00,
2013-02-02 01:26:00,63.6,59.0,31.19,NE,55,4.0,5.0,85,0.00,,,0.00,Wunderground v.1.15,2013-02-02 06:26:00,
2013-02-02 01:32:00,63.6,58.7,31.19,NNW,330,3.0,5.0,84,0.00,,,0.00,Wunderground v.1.15,2013-02-02 06:32:00,
2013-02-02 01:38:00,63.5,58.6,31.19,NNE,32,2.0,5.0,84,0.00,,,0.00,Wunderground v.1.15,2013-02-02 06:38:00,
2013-02-02 01:43:00,63.4,58.8,31.18,NE,41,2.0,5.0,85,0.00,,,0.00,Wunderground v.1.15,2013-02-02 06:43:00,
2013-02-02 01:49:00,63.5,58.9,31.18,NNE,23,2.0,5.0,85,0.00,,,0.00,Wunderground v.1.15,2013-02-02 06:49:00,
2013-02-02 01:55:00,63.5,58.9,31.18,NW,319,2.0,3.0,85,0.00,,,0.00,Wunderground v.1.15,2013-02-02 06:55:00,
2013-02-02 02:01:00,63.6,58.7,31.18,NNE,30,2.0,7.0,84,0.00,,,0.00,Wunderground v.1.15,2013-02-02 07:01:00,
2013-02-02 02:07:00,63.7,58.8,31.18,NNW,343,2.0,7.0,84,0.00,,,0.00,Wunderground v.1.15,2013-02-02 07:07:00,
2013-02-02 02:13:00,63.7,58.8,31.18,North,4,2.0,3.0,84,0.00,,,0.00,Wunderground v.1.15,2013-02-02 07:13:00,
2013-02-02 02:19:00,63.8,59.2,31.18,North,4,2.0,4.0,85,0.00,,,0.00,Wunderground v.1.15,2013-02-02 07:19:00,
2013-02-02 02:24:00,63.8,59.2,31.18,NE,34,3.0,5.0,85,0.00,,,0.00,Wunderground v.1.15,2013-02-02 07:24:00,
2013-02-02 02:30:00,63.5,58.9,31.19,NE,34,4.0,6.0,85,0.00,,,0.00,Wunderground v.1.15,2013-02-02 07:30:00,
2013-02-02 02:36:00,63.2,58.6,31.19,North,11,4.0,7.0,85,0.00,,,0.00,Wunderground v.1.15,2013-02-02 07:36:00,
2013-02-02 02:42:00,62.9,58.6,31.19,NNW,340,3.0,6.0,86,0.00,,,0.00,Wunderground v.1.15,2013-02-02 07:42:00,
2013-02-02 02:47:00,62.7,58.5,31.18,NNW,344,3.0,6.0,86,0.00,,,0.00,Wunderground v.1.15,2013-02-02 07:47:00,
2013-02-02 02:53:00,62.6,58.4,31.18,North,4,4.0,7.0,86,0.00,,,0.00,Wunderground v.1.15,2013-02-02 07:53:00,
2013-02-02 02:59:00,62.6,58.4,31.18,North,349,4.0,7.0,86,0.00,,,0.00,Wunderground v.1.15,2013-02-02 07:59:00,
2013-02-02 03:06:00,62.5,58.3,31.18,NNW,329,4.0,5.0,86,0.00,,,0.00,Wunderground v.1.15,2013-02-02 08:06:00,
2013-02-02 03:12:00,62.6,58.4,31.18,North,1,3.0,4.0,86,0.00,,,0.00,Wunderground v.1.15,2013-02-02 08:12:00,
2013-02-02 03:18:00,62.6,58.4,31.18,ENE,71,3.0,6.0,86,0.00,,,0.00,Wunderground v.1.15,2013-02-02 08:18:00,
2013-02-02 03:24:00,62.5,58.3,31.17,NNE,29,3.0,4.0,86,0.00,,,0.00,Wunderground v.1.15,2013-02-02 08:24:00,
2013-02-02 03:29:00,62.5,58.3,31.17,NNE,26,3.0,7.0,86,0.00,,,0.00,Wunderground v.1.15,2013-02-02 08:29:00,
2013-02-02 03:35:00,62.5,57.9,31.17,NNE,15,3.0,4.0,85,0.00,,,0.00,Wunderground v.1.15,2013-02-02 08:35:00,
2013-02-02 03:41:00,62.4,58.2,31.17,NNE,19,3.0,6.0,86,0.00,,,0.00,Wunderground v.1.15,2013-02-02 08:41:00,
2013-02-02 03:47:00,62.4,58.2,31.17,NNW,340,3.0,6.0,86,0.00,,,0.00,Wunderground v.1.15,2013-02-02 08:47:00,
2013-02-02 03:53:00,62.4,58.2,31.17,NNW,340,3.0,6.0,86,0.00,,,0.00,Wunderground v.1.15,2013-02-02 08:53:00,
2013-02-02 03:59:00,62.4,58.5,31.17,NNE,13,2.0,6.0,87,0.00,,,0.00,Wunderground v.1.15,2013-02-02 08:59:00,
2013-02-02 04:06:00,62.5,58.6,31.17,NNE,22,2.0,4.0,87,0.00,,,0.00,Wunderground v.1.15,2013-02-02 09:06:00,
2013-02-02 04:12:00,62.5,58.3,31.17,North,9,2.0,3.0,86,0.00,,,0.00,Wunderground v.1.15,2013-02-02 09:12:00,
2013-02-02 04:17:00,62.6,58.4,31.17,NNE,13,2.0,3.0,86,0.00,,,0.00,Wunderground v.1.15,2013-02-02 09:17:00,
2013-02-02 04:23:00,62.7,58.5,31.17,NE,49,2.0,4.0,86,0.00,,,0.00,Wunderground v.1.15,2013-02-02 09:23:00,
2013-02-02 04:29:00,62.8,58.5,31.17,NNW,346,2.0,6.0,86,0.00,,,0.00,Wunderground v.1.15,2013-02-02 09:29:00,
2013-02-02 04:35:00,62.9,58.6,31.17,NE,49,2.0,4.0,86,0.00,,,0.00,Wunderground v.1.15,2013-02-02 09:35:00,
2013-02-02 04:40:00,63.1,58.8,31.18,NW,315,2.0,3.0,86,0.00,,,0.00,Wunderground v.1.15,2013-02-02 09:40:00,
2013-02-02 04:46:00,63.3,59.0,31.18,ENE,67,2.0,4.0,86,0.00,,,0.00,Wunderground v.1.15,2013-02-02 09:46:00,
2013-02-02 04:52:00,63.1,58.8,31.18,ENE,65,3.0,6.0,86,0.00,,,0.00,Wunderground v.1.15,2013-02-02 09:52:00,
2013-02-02 04:58:00,62.9,58.6,31.18,NW,312,3.0,6.0,86,0.00,,,0.00,Wunderground v.1.15,2013-02-02 09:58:00,
2013-02-02 05:04:00,62.8,58.5,31.18,NE,47,3.0,4.0,86,0.00,,,0.00,Wunderground v.1.15,2013-02-02 10:04:00,
2013-02-02 05:10:00,62.8,58.9,31.18,NNE,23,3.0,4.0,87,0.00,,,0.00,Wunderground v.1.15,2013-02-02 10:10:00,
2013-02-02 05:16:00,62.6,58.7,31.18,ESE,114,3.0,6.0,87,0.00,,,0.00,Wunderground v.1.15,2013-02-02 10:16:00,
2013-02-02 05:21:00,62.6,58.7,31.18,NNE,24,3.0,3.0,87,0.00,,,0.00,Wunderground v.1.15,2013-02-02 10:21:00,
2013-02-02 05:27:00,62.5,58.6,31.18,NNE,30,3.0,6.0,87,0.00,,,0.00,Wunderground v.1.15,2013-02-02 10:27:00,
2013-02-02 05:33:00,62.4,58.2,31.18,NE,47,3.0,3.0,86,0.00,,,0.00,Wunderground v.1.15,2013-02-02 10:33:00,
2013-02-02 05:39:00,62.3,58.1,31.18,ENE,57,3.0,5.0,86,0.00,,,0.00,Wunderground v.1.15,2013-02-02 10:39:00,
2013-02-02 05:44:00,62.2,58.0,31.18,NW,321,4.0,5.0,86,0.00,,,0.00,Wunderground v.1.15,2013-02-02 10:44:00,
2013-02-02 05:50:00,62.0,57.8,31.19,WNW,297,4.0,4.0,86,0.00,,,0.00,Wunderground v.1.15,2013-02-02 10:50:00,
2013-02-02 05:56:00,61.8,57.6,31.19,NNE,30,3.0,6.0,86,0.00,,,0.00,Wunderground v.1.15,2013-02-02 10:56:00,
2013-02-02 06:02:00,61.8,57.6,31.19,East,84,3.0,3.0,86,0.00,,,0.00,Wunderground v.1.15,2013-02-02 11:02:00,
2013-02-02 06:08:00,61.8,57.6,31.19,ENE,57,3.0,9.0,86,0.00,,,0.00,Wunderground v.1.15,2013-02-02 11:08:00,
2013-02-02 06:14:00,61.8,57.6,31.19,NNW,338,3.0,5.0,86,0.00,,,0.00,Wunderground v.1.15,2013-02-02 11:14:00,
2013-02-02 06:20:00,61.9,57.7,31.19,North,6,4.0,4.0,86,0.00,,,0.00,Wunderground v.1.15,2013-02-02 11:20:00,
2013-02-02 06:25:00,61.9,57.7,31.20,NE,46,4.0,4.0,86,0.00,,,0.00,Wunderground v.1.15,2013-02-02 11:25:00,
2013-02-02 06:31:00,61.9,57.7,31.20,NNW,334,4.0,4.0,86,0.00,,,0.00,Wunderground v.1.15,2013-02-02 11:31:00,
2013-02-02 06:37:00,61.8,57.6,31.20,ENE,68,4.0,9.0,86,0.00,,,0.00,Wunderground v.1.15,2013-02-02 11:37:00,
2013-02-02 06:43:00,61.6,57.0,31.20,NE,44,4.0,7.0,85,0.00,,,0.00,Wunderground v.1.15,2013-02-02 11:43:00,
2013-02-02 06:48:00,61.6,57.0,31.21,NW,304,4.0,7.0,85,0.00,,,0.00,Wunderground v.1.15,2013-02-02 11:48:00,
2013-02-02 06:54:00,61.4,56.8,31.21,NW,325,3.0,4.0,85,0.00,,,0.00,Wunderground v.1.15,2013-02-02 11:54:00,
2013-02-02 07:00:00,61.4,56.8,31.21,North,1,4.0,4.0,85,0.00,,,0.00,Wunderground v.1.15,2013-02-02 12:00:00,
2013-02-02 07:06:00,61.4,56.8,31.21,NE,39,4.0,10.0,85,0.00,,,0.00,Wunderground v.1.15,2013-02-02 12:06:00,
2013-02-02 07:12:00,61.4,56.5,31.21,NW,326,4.0,7.0,84,0.00,,,0.00,Wunderground v.1.15,2013-02-02 12:12:00,
2013-02-02 07:18:00,61.3,56.4,31.21,NNE,29,5.0,7.0,84,0.00,,,0.00,Wunderground v.1.15,2013-02-02 12:18:00,
2013-02-02 07:24:00,61.2,56.3,31.21,NNW,345,4.0,6.0,84,0.00,,,0.00,Wunderground v.1.15,2013-02-02 12:24:00,
2013-02-02 07:29:00,61.2,56.7,31.21,North,11,4.0,6.0,85,0.00,,,0.00,Wunderground v.1.15,2013-02-02 12:29:00,
2013-02-02 07:35:00,61.2,56.7,31.21,NNE,24,4.0,9.0,85,0.00,,,0.00,Wunderground v.1.15,2013-02-02 12:35:00,
2013-02-02 07:41:00,61.2,56.3,31.22,NW,325,4.0,4.0,84,0.00,,,0.00,Wunderground v.1.15,2013-02-02 12:41:00,
2013-02-02 07:47:00,61.2,56.3,31.22,NNE,25,4.0,9.0,84,0.00,,,0.00,Wunderground v.1.15,2013-02-02 12:47:00,
2013-02-02 07:53:00,61.2,56.0,31.22,North,11,4.0,6.0,83,0.00,,,0.00,Wunderground v.1.15,2013-02-02 12:53:00,
2013-02-02 07:59:00,61.2,56.0,31.22,NE,47,4.0,8.0,83,0.00,,,0.00,Wunderground v.1.15,2013-02-02 12:59:00,
2013-02-02 08:05:00,61.3,55.8,31.22,North,6,5.0,9.0,82,0.00,,,0.00,Wunderground v.1.15,2013-02-02 13:05:00,
2013-02-02 08:11:00,61.3,55.4,31.22,North,9,5.0,5.0,81,0.00,,,0.00,Wunderground v.1.15,2013-02-02 13:11:00,
2013-02-02 08:16:00,61.4,55.2,31.22,NNW,335,5.0,7.0,80,0.00,,,0.00,Wunderground v.1.15,2013-02-02 13:16:00,
2013-02-02 08:22:00,61.5,55.3,31.22,WNW,293,5.0,5.0,80,0.00,,,0.00,Wunderground v.1.15,2013-02-02 13:22:00,
2013-02-02 08:28:00,61.7,55.5,31.23,NW,308,4.0,6.0,80,0.00,,,0.00,Wunderground v.1.15,2013-02-02 13:28:00,
2013-02-02 08:34:00,62.3,55.7,31.23,NNE,25,5.0,8.0,79,0.00,,,0.00,Wunderground v.1.15,2013-02-02 13:34:00,
2013-02-02 08:39:00,62.8,55.8,31.23,NNW,328,5.0,9.0,78,0.00,,,0.00,Wunderground v.1.15,2013-02-02 13:39:00,
2013-02-02 08:45:00,63.0,55.7,31.23,North,8,4.0,9.0,77,0.00,,,0.00,Wunderground v.1.15,2013-02-02 13:45:00,
2013-02-02 08:51:00,63.3,56.0,31.23,NE,36,5.0,9.0,77,0.00,,,0.00,Wunderground v.1.15,2013-02-02 13:51:00,
2013-02-02 08:57:00,63.5,55.8,31.23,NNW,333,4.0,9.0,76,0.00,,,0.00,Wunderground v.1.15,2013-02-02 13:57:00,
2013-02-02 09:02:00,63.6,55.2,31.23,NNE,27,4.0,7.0,74,0.00,,,0.00,Wunderground v.1.15,2013-02-02 14:02:00,
2013-02-02 09:08:00,63.8,55.4,31.23,NNW,333,5.0,9.0,74,0.00,,,0.00,Wunderground v.1.15,2013-02-02 14:08:00,
2013-02-02 09:14:00,64.1,55.3,31.23,North,7,4.0,7.0,73,0.00,,,0.00,Wunderground v.1.15,2013-02-02 14:14:00,
2013-02-02 09:19:00,64.3,55.8,31.23,ENE,70,5.0,7.0,74,0.00,,,0.00,Wunderground v.1.15,2013-02-02 14:19:00,
2013-02-02 09:25:00,64.7,55.8,31.23,North,352,4.0,8.0,73,0.00,,,0.00,Wunderground v.1.15,2013-02-02 14:25:00,
2013-02-02 09:31:00,65.0,56.1,31.23,NNW,342,4.0,6.0,73,0.00,,,0.00,Wunderground v.1.15,2013-02-02 14:31:00,
2013-02-02 09:37:00,65.4,56.5,31.23,North,1,4.0,6.0,73,0.00,,,0.00,Wunderground v.1.15,2013-02-02 14:37:00,
2013-02-02 09:42:00,65.5,56.2,31.23,NE,41,4.0,7.0,72,0.00,,,0.00,Wunderground v.1.15,2013-02-02 14:42:00,
2013-02-02 09:48:00,65.9,56.6,31.23,ESE,113,5.0,7.0,72,0.00,,,0.00,Wunderground v.1.15,2013-02-02 14:48:00,
2013-02-02 09:53:00,66.0,55.9,31.23,NNE,27,4.0,7.0,70,0.00,,,0.00,Wunderground v.1.15,2013-02-02 14:53:00,
2013-02-02 09:59:00,66.2,56.5,31.23,NNW,332,4.0,7.0,71,0.00,,,0.00,Wunderground v.1.15,2013-02-02 14:59:00,
2013-02-02 10:04:00,66.3,56.6,31.23,North,4,5.0,13.0,71,0.00,,,0.00,Wunderground v.1.15,2013-02-02 15:04:00,
2013-02-02 10:10:00,66.8,56.7,31.23,NNE,26,4.0,4.0,70,0.00,,,0.00,Wunderground v.1.15,2013-02-02 15:10:00,
2013-02-02 10:16:00,67.1,56.6,31.23,NW,305,4.0,9.0,69,0.00,,,0.00,Wunderground v.1.15,2013-02-02 15:16:00,
2013-02-02 10:22:00,67.5,57.0,31.23,North,356,4.0,6.0,69,0.00,,,0.00,Wunderground v.1.15,2013-02-02 15:22:00,
2013-02-02 10:27:00,67.6,56.7,31.23,NE,55,4.0,6.0,68,0.00,,,0.00,Wunderground v.1.15,2013-02-02 15:27:00,
2013-02-02 10:33:00,68.2,57.2,31.22,NE,42,4.0,5.0,68,0.00,,,0.00,Wunderground v.1.15,2013-02-02 15:33:00,
2013-02-02 10:39:00,68.7,57.3,31.22,North,3,3.0,6.0,67,0.00,,,0.00,Wunderground v.1.15,2013-02-02 15:39:00,
2013-02-02 10:45:00,69.0,57.6,31.22,NNE,13,3.0,6.0,67,0.00,,,0.00,Wunderground v.1.15,2013-02-02 15:45:00,
2013-02-02 10:50:00,68.9,57.5,31.21,North,6,4.0,7.0,67,0.00,,,0.00,Wunderground v.1.15,2013-02-02 15:50:00,
2013-02-02 10:56:00,69.3,58.3,31.21,NNE,16,4.0,7.0,68,0.00,,,0.00,Wunderground v.1.15,2013-02-02 15:56:00,
2013-02-02 11:02:00,69.7,58.3,31.21,ESE,113,3.0,3.0,67,0.00,,,0.00,Wunderground v.1.15,2013-02-02 16:02:00,
2013-02-02 11:08:00,70.5,58.2,31.20,North,349,3.0,4.0,65,0.00,,,0.00,Wunderground v.1.15,2013-02-02 16:08:00,
2013-02-02 11:14:00,70.5,57.7,31.20,ENE,69,3.0,7.0,64,0.00,,,0.00,Wunderground v.1.15,2013-02-02 16:14:00,
2013-02-02 11:20:00,71.2,58.4,31.20,ENE,72,3.0,4.0,64,0.00,,,0.00,Wunderground v.1.15,2013-02-02 16:20:00,
2013-02-02 11:26:00,71.3,58.1,31.19,NNW,344,3.0,5.0,63,0.00,,,0.00,Wunderground v.1.15,2013-02-02 16:26:00,
2013-02-02 11:32:00,71.2,58.8,31.19,NNE,13,3.0,3.0,65,0.00,,,0.00,Wunderground v.1.15,2013-02-02 16:32:00,
2013-02-02 11:37:00,71.6,58.8,31.19,North,3,2.0,3.0,64,0.00,,,0.00,Wunderground v.1.15,2013-02-02 16:37:00,
2013-02-02 11:43:00,72.0,59.6,31.18,NNE,20,3.0,4.0,65,0.00,,,0.00,Wunderground v.1.15,2013-02-02 16:43:00,
2013-02-02 11:49:00,72.1,59.7,31.18,North,1,3.0,6.0,65,0.00,,,0.00,Wunderground v.1.15,2013-02-02 16:49:00,
2013-02-02 11:55:00,72.2,59.8,31.18,East,82,2.0,3.0,65,0.00,,,0.00,Wunderground v.1.15,2013-02-02 16:55:00,
2013-02-02 12:01:00,72.5,59.2,31.17,NE,50,3.0,6.0,63,0.00,,,0.00,Wunderground v.1.15,2013-02-02 17:01:00,
2013-02-02 12:07:00,72.4,59.1,31.17,East,101,5.0,7.0,63,0.00,,,0.00,Wunderground v.1.15,2013-02-02 17:07:00,
2013-02-02 12:13:00,72.9,58.7,31.17,East,98,6.0,9.0,61,0.00,,,0.00,Wunderground v.1.15,2013-02-02 17:13:00,
2013-02-02 12:18:00,73.7,59.4,31.16,ESE,103,6.0,9.0,61,0.00,,,0.00,Wunderground v.1.15,2013-02-02 17:18:00,
2013-02-02 12:24:00,74.0,58.8,31.16,East,100,6.0,8.0,59,0.00,,,0.00,Wunderground v.1.15,2013-02-02 17:24:00,
2013-02-02 12:30:00,73.7,58.5,31.16,ESE,103,6.0,6.0,59,0.00,,,0.00,Wunderground v.1.15,2013-02-02 17:30:00,
2013-02-02 12:35:00,73.0,57.8,31.16,East,84,6.0,9.0,59,0.00,,,0.00,Wunderground v.1.15,2013-02-02 17:35:00,
2013-02-02 12:41:00,73.2,58.0,31.15,SSE,153,6.0,6.0,59,0.00,,,0.00,Wunderground v.1.15,2013-02-02 17:41:00,
2013-02-02 12:47:00,73.7,58.0,31.15,East,80,5.0,6.0,58,0.00,,,0.00,Wunderground v.1.15,2013-02-02 17:47:00,
2013-02-02 12:53:00,74.3,58.6,31.15,ESE,108,5.0,9.0,58,0.00,,,0.00,Wunderground v.1.15,2013-02-02 17:53:00,
2013-02-02 12:59:00,73.8,58.1,31.15,SE,128,6.0,9.0,58,0.00,,,0.00,Wunderground v.1.15,2013-02-02 17:59:00,
2013-02-02 13:05:00,73.7,58.0,31.14,East,86,5.0,8.0,58,0.00,,,0.00,Wunderground v.1.15,2013-02-02 18:05:00,
2013-02-02 13:11:00,74.4,58.7,31.14,ENE,76,5.0,6.0,58,0.00,,,0.00,Wunderground v.1.15,2013-02-02 18:11:00,
2013-02-02 13:16:00,74.2,57.5,31.14,ENE,72,5.0,7.0,56,0.00,,,0.00,Wunderground v.1.15,2013-02-02 18:16:00,
2013-02-02 13:22:00,74.2,58.0,31.14,NE,42,5.0,6.0,57,0.00,,,0.00,Wunderground v.1.15,2013-02-02 18:22:00,
2013-02-02 13:28:00,73.9,56.7,31.14,SSE,158,6.0,9.0,55,0.00,,,0.00,Wunderground v.1.15,2013-02-02 18:28:00,
2013-02-02 13:34:00,74.0,57.8,31.13,ESE,103,6.0,9.0,57,0.00,,,0.00,Wunderground v.1.15,2013-02-02 18:34:00,
2013-02-02 13:39:00,74.5,57.8,31.13,East,87,5.0,9.0,56,0.00,,,0.00,Wunderground v.1.15,2013-02-02 18:39:00,
2013-02-02 13:45:00,74.4,57.2,31.13,East,91,5.0,8.0,55,0.00,,,0.00,Wunderground v.1.15,2013-02-02 18:45:00,
2013-02-02 13:51:00,74.3,57.1,31.13,North,358,5.0,6.0,55,0.00,,,0.00,Wunderground v.1.15,2013-02-02 18:51:00,
2013-02-02 13:57:00,74.6,56.9,31.12,ESE,110,5.0,7.0,54,0.00,,,0.00,Wunderground v.1.15,2013-02-02 18:57:00,
2013-02-02 14:02:00,74.6,57.9,31.12,East,86,5.0,7.0,56,0.00,,,0.00,Wunderground v.1.15,2013-02-02 19:02:00,
2013-02-02 14:08:00,74.3,57.1,31.12,ENE,75,5.0,7.0,55,0.00,,,0.00,Wunderground v.1.15,2013-02-02 19:08:00,
2013-02-02 14:14:00,73.7,57.0,31.12,East,91,7.0,11.0,56,0.00,,,0.00,Wunderground v.1.15,2013-02-02 19:14:00,
2013-02-02 14:19:00,73.9,57.2,31.12,ENE,70,6.0,11.0,56,0.00,,,0.00,Wunderground v.1.15,2013-02-02 19:19:00,
2013-02-02 14:25:00,74.0,56.3,31.12,East,91,5.0,10.0,54,0.00,,,0.00,Wunderground v.1.15,2013-02-02 19:25:00,
2013-02-02 14:31:00,74.2,57.0,31.11,ESE,117,5.0,6.0,55,0.00,,,0.00,Wunderground v.1.15,2013-02-02 19:31:00,
2013-02-02 14:37:00,74.9,57.6,31.11,ENE,78,4.0,7.0,55,0.00,,,0.00,Wunderground v.1.15,2013-02-02 19:37:00,
2013-02-02 14:42:00,74.4,56.7,31.11,East,91,5.0,10.0,54,0.00,,,0.00,Wunderground v.1.15,2013-02-02 19:42:00,
2013-02-02 14:48:00,73.9,56.7,31.11,East,79,6.0,10.0,55,0.00,,,0.00,Wunderground v.1.15,2013-02-02 19:48:00,
2013-02-02 14:54:00,74.2,57.5,31.11,NNE,24,5.0,6.0,56,0.00,,,0.00,Wunderground v.1.15,2013-02-02 19:54:00,
2013-02-02 15:00:00,74.7,56.9,31.11,East,97,4.0,4.0,54,0.00,,,0.00,Wunderground v.1.15,2013-02-02 20:00:00,
2013-02-02 15:05:00,74.9,57.1,31.11,ENE,70,4.0,6.0,54,0.00,,,0.00,Wunderground v.1.15,2013-02-02 20:05:00,
2013-02-02 15:11:00,74.5,56.2,31.11,ESE,121,4.0,7.0,53,0.00,,,0.00,Wunderground v.1.15,2013-02-02 20:11:00,
2013-02-02 15:17:00,74.4,56.2,31.11,East,101,4.0,7.0,53,0.00,,,0.00,Wunderground v.1.15,2013-02-02 20:17:00,
2013-02-02 15:22:00,74.2,57.0,31.11,East,94,4.0,4.0,55,0.00,,,0.00,Wunderground v.1.15,2013-02-02 20:22:00,
2013-02-02 15:28:00,73.8,58.1,31.11,ESE,122,5.0,6.0,58,0.00,,,0.00,Wunderground v.1.15,2013-02-02 20:28:00,
2013-02-02 15:34:00,74.1,56.9,31.11,East,79,4.0,6.0,55,0.00,,,0.00,Wunderground v.1.15,2013-02-02 20:34:00,
2013-02-02 15:40:00,73.9,57.2,31.11,ENE,61,4.0,6.0,56,0.00,,,0.00,Wunderground v.1.15,2013-02-02 20:40:00,
2013-02-02 15:45:00,74.1,56.4,31.11,ESE,106,4.0,6.0,54,0.00,,,0.00,Wunderground v.1.15,2013-02-02 20:45:00,
2013-02-02 15:51:00,74.3,56.6,31.11,East,82,3.0,6.0,54,0.00,,,0.00,Wunderground v.1.15,2013-02-02 20:51:00,
2013-02-02 15:56:00,73.9,56.2,31.11,ESE,120,4.0,6.0,54,0.00,,,0.00,Wunderground v.1.15,2013-02-02 20:56:00,
2013-02-02 16:02:00,73.9,57.2,31.11,ENE,67,4.0,4.0,56,0.00,,,0.00,Wunderground v.1.15,2013-02-02 21:02:00,
2013-02-02 16:08:00,74.0,57.3,31.11,ENE,72,4.0,5.0,56,0.00,,,0.00,Wunderground v.1.15,2013-02-02 21:08:00,
2013-02-02 16:14:00,73.7,57.0,31.11,East,93,4.0,7.0,56,0.00,,,0.00,Wunderground v.1.15,2013-02-02 21:14:00,
2013-02-02 16:20:00,73.7,57.0,31.11,ESE,103,4.0,5.0,56,0.00,,,0.00,Wunderground v.1.15,2013-02-02 21:20:00,
2013-02-02 16:25:00,73.7,57.5,31.11,ESE,103,4.0,5.0,57,0.00,,,0.00,Wunderground v.1.15,2013-02-02 21:25:00,
2013-02-02 16:31:00,73.5,57.3,31.11,East,82,4.0,4.0,57,0.00,,,0.00,Wunderground v.1.15,2013-02-02 21:31:00,
2013-02-02 16:37:00,73.3,57.1,31.11,ENE,77,4.0,5.0,57,0.00,,,0.00,Wunderground v.1.15,2013-02-02 21:37:00,
2013-02-02 16:43:00,73.3,57.6,31.11,ESE,104,4.0,4.0,58,0.00,,,0.00,Wunderground v.1.15,2013-02-02 21:43:00,
2013-02-02 16:49:00,73.1,57.0,31.11,ESE,115,3.0,9.0,57,0.00,,,0.00,Wunderground v.1.15,2013-02-02 21:49:00,
2013-02-02 16:55:00,73.0,57.3,31.11,ESE,108,4.0,5.0,58,0.00,,,0.00,Wunderground v.1.15,2013-02-02 21:55:00,
2013-02-02 17:01:00,72.8,57.2,31.11,East,101,3.0,5.0,58,0.00,,,0.00,Wunderground v.1.15,2013-02-02 22:01:00,
2013-02-02 17:06:00,72.7,58.0,31.11,NE,55,3.0,5.0,60,0.00,,,0.00,Wunderground v.1.15,2013-02-02 22:06:00,
2013-02-02 17:12:00,72.6,57.4,31.11,ENE,69,3.0,3.0,59,0.00,,,0.00,Wunderground v.1.15,2013-02-02 22:12:00,
2013-02-02 17:18:00,72.6,57.4,31.11,ENE,61,2.0,4.0,59,0.00,,,0.00,Wunderground v.1.15,2013-02-02 22:18:00,
2013-02-02 17:24:00,72.2,57.5,31.11,ENE,65,3.0,6.0,60,0.00,,,0.00,Wunderground v.1.15,2013-02-02 22:24:00,
2013-02-02 17:30:00,72.0,56.9,31.10,East,101,3.0,3.0,59,0.00,,,0.00,Wunderground v.1.15,2013-02-02 22:30:00,
2013-02-02 17:36:00,71.6,57.4,31.10,ENE,78,3.0,7.0,61,0.00,,,0.00,Wunderground v.1.15,2013-02-02 22:36:00,
2013-02-02 17:42:00,71.2,57.1,31.10,NNE,31,4.0,6.0,61,0.00,,,0.00,Wunderground v.1.15,2013-02-02 22:42:00,
2013-02-02 17:48:00,71.0,57.3,31.10,ESE,111,4.0,6.0,62,0.00,,,0.00,Wunderground v.1.15,2013-02-02 22:48:00,
2013-02-02 17:53:00,70.7,57.9,31.10,ESE,107,4.0,4.0,64,0.00,,,0.00,Wunderground v.1.15,2013-02-02 22:53:00,
2013-02-02 17:59:00,70.5,57.7,31.10,East,92,3.0,4.0,64,0.00,,,0.00,Wunderground v.1.15,2013-02-02 22:59:00,
2013-02-02 18:05:00,70.4,57.6,31.10,ESE,117,2.0,3.0,64,0.00,,,0.00,Wunderground v.1.15,2013-02-02 23:05:00,
2013-02-02 18:11:00,70.3,57.1,31.10,ENE,76,2.0,5.0,63,0.00,,,0.00,Wunderground v.1.15,2013-02-02 23:11:00,
2013-02-02 18:16:00,70.2,57.0,31.10,East,92,3.0,5.0,63,0.00,,,0.00,Wunderground v.1.15,2013-02-02 23:16:00,
2013-02-02 18:22:00,70.2,57.0,31.10,East,81,3.0,3.0,63,0.00,,,0.00,Wunderground v.1.15,2013-02-02 23:22:00,
2013-02-02 18:29:00,70.1,56.9,31.10,East,82,2.0,5.0,63,0.00,,,0.00,Wunderground v.1.15,2013-02-02 23:29:00,
2013-02-02 18:34:00,70.0,56.8,31.10,East,94,2.0,4.0,63,0.00,,,0.00,Wunderground v.1.15,2013-02-02 23:34:00,
2013-02-02 18:40:00,70.0,56.8,31.11,NE,40,2.0,3.0,63,0.00,,,0.00,Wunderground v.1.15,2013-02-02 23:40:00,
2013-02-02 18:46:00,69.6,57.3,31.11,NNE,25,1.0,3.0,65,0.00,,,0.00,Wunderground v.1.15,2013-02-02 23:46:00,
2013-02-02 18:52:00,69.0,57.6,31.11,NE,55,1.0,3.0,67,0.00,,,0.00,Wunderground v.1.15,2013-02-02 23:52:00,
2013-02-02 18:57:00,68.6,57.6,31.11,ENE,59,1.0,3.0,68,0.00,,,0.00,Wunderground v.1.15,2013-02-02 23:57:00,
2013-02-02 19:02:00,68.3,57.7,31.11,NE,34,1.0,3.0,69,0.00,,,0.00,Wunderground v.1.15,2013-02-03 00:02:00,
2013-02-02 19:08:00,68.1,57.9,31.11,NNE,33,1.0,3.0,70,0.00,,,0.00,Wunderground v.1.15,2013-02-03 00:08:00,
2013-02-02 19:14:00,67.9,58.1,31.11,NE,56,1.0,3.0,71,0.00,,,0.00,Wunderground v.1.15,2013-02-03 00:14:00,
2013-02-02 19:20:00,67.8,57.7,31.11,ENE,64,1.0,3.0,70,0.00,,,0.00,Wunderground v.1.15,2013-02-03 00:20:00,
2013-02-02 19:25:00,67.8,58.1,31.11,NE,39,1.0,3.0,71,0.00,,,0.00,Wunderground v.1.15,2013-02-03 00:25:00,
2013-02-02 19:31:00,67.7,58.0,31.12,NE,50,1.0,3.0,71,0.00,,,0.00,Wunderground v.1.15,2013-02-03 00:31:00,
2013-02-02 19:37:00,67.6,58.6,31.12,North,349,1.0,3.0,73,0.00,,,0.00,Wunderground v.1.15,2013-02-03 00:37:00,
2013-02-02 19:43:00,67.4,58.8,31.12,ENE,59,1.0,3.0,74,0.00,,,0.00,Wunderground v.1.15,2013-02-03 00:43:00,
2013-02-02 19:49:00,67.3,58.7,31.12,ENE,73,1.0,3.0,74,0.00,,,0.00,Wunderground v.1.15,2013-02-03 00:49:00,
2013-02-02 19:55:00,67.3,59.1,31.12,NNW,347,1.0,3.0,75,0.00,,,0.00,Wunderground v.1.15,2013-02-03 00:55:00,
2013-02-02 20:01:00,67.3,58.7,31.12,ENE,60,1.0,3.0,74,0.00,,,0.00,Wunderground v.1.15,2013-02-03 01:01:00,
2013-02-02 20:06:00,67.3,58.7,31.12,NNE,22,2.0,4.0,74,0.00,,,0.00,Wunderground v.1.15,2013-02-03 01:06:00,
2013-02-02 20:12:00,67.3,58.7,31.12,NE,34,1.0,3.0,74,0.00,,,0.00,Wunderground v.1.15,2013-02-03 01:12:00,
2013-02-02 20:17:00,67.2,59.0,31.13,NNE,25,1.0,3.0,75,0.00,,,0.00,Wunderground v.1.15,2013-02-03 01:17:00,
2013-02-02 20:23:00,67.2,59.0,31.13,NNE,25,1.0,3.0,75,0.00,,,0.00,Wunderground v.1.15,2013-02-03 01:23:00,
2013-02-02 20:29:00,67.1,59.3,31.13,NNW,336,1.0,3.0,76,0.00,,,0.00,Wunderground v.1.15,2013-02-03 01:29:00,
2013-02-02 20:34:00,67.1,59.3,31.13,NE,44,1.0,3.0,76,0.00,,,0.00,Wunderground v.1.15,2013-02-03 01:34:00,
2013-02-02 20:40:00,67.1,59.3,31.13,North,8,1.0,1.0,76,0.00,,,0.00,Wunderground v.1.15,2013-02-03 01:40:00,
2013-02-02 20:45:00,67.1,59.6,31.13,ENE,70,1.0,3.0,77,0.00,,,0.00,Wunderground v.1.15,2013-02-03 01:45:00,
2013-02-02 20:51:00,67.2,59.7,31.13,NE,44,1.0,3.0,77,0.00,,,0.00,Wunderground v.1.15,2013-02-03 01:51:00,
2013-02-02 20:57:00,67.1,59.6,31.14,East,82,1.0,3.0,77,0.00,,,0.00,Wunderground v.1.15,2013-02-03 01:57:00,
2013-02-02 21:02:00,67.0,59.5,31.14,East,94,1.0,3.0,77,0.00,,,0.00,Wunderground v.1.15,2013-02-03 02:02:00,
2013-02-02 21:07:00,67.0,59.5,31.14,ENE,60,1.0,3.0,77,0.00,,,0.00,Wunderground v.1.15,2013-02-03 02:07:00,
2013-02-02 21:13:00,67.1,59.6,31.13,North,7,1.0,3.0,77,0.00,,,0.00,Wunderground v.1.15,2013-02-03 02:13:00,
2013-02-02 21:19:00,67.1,59.6,31.14,NNE,20,1.0,3.0,77,0.00,,,0.00,Wunderground v.1.15,2013-02-03 02:19:00,
2013-02-02 21:25:00,67.1,59.3,31.14,NNE,32,1.0,4.0,76,0.00,,,0.00,Wunderground v.1.15,2013-02-03 02:25:00,
2013-02-02 21:31:00,67.1,59.3,31.13,ENE,75,1.0,3.0,76,0.00,,,0.00,Wunderground v.1.15,2013-02-03 02:31:00,
2013-02-02 21:37:00,66.9,58.7,31.13,NE,41,0.0,3.0,75,0.00,,,0.00,Wunderground v.1.15,2013-02-03 02:37:00,
2013-02-02 21:43:00,66.9,58.7,31.13,NE,41,1.0,3.0,75,0.00,,,0.00,Wunderground v.1.15,2013-02-03 02:43:00,
2013-02-02 21:48:00,66.9,58.7,31.13,NNW,344,1.0,3.0,75,0.00,,,0.00,Wunderground v.1.15,2013-02-03 02:48:00,
2013-02-02 21:54:00,66.8,59.0,31.13,North,1,1.0,4.0,76,0.00,,,0.00,Wunderground v.1.15,2013-02-03 02:54:00,
2013-02-02 22:00:00,66.7,59.3,31.13,NNE,30,1.0,1.0,77,0.00,,,0.00,Wunderground v.1.15,2013-02-03 03:00:00,
2013-02-02 22:06:00,66.6,59.2,31.13,ENE,59,1.0,3.0,77,0.00,,,0.00,Wunderground v.1.15,2013-02-03 03:06:00,
2013-02-02 22:11:00,66.6,59.5,31.13,East,96,1.0,3.0,78,0.00,,,0.00,Wunderground v.1.15,2013-02-03 03:11:00,
2013-02-02 22:17:00,66.5,59.4,31.13,NE,41,1.0,3.0,78,0.00,,,0.00,Wunderground v.1.15,2013-02-03 03:17:00,
2013-02-02 22:23:00,66.6,59.5,31.13,NNE,31,1.0,3.0,78,0.00,,,0.00,Wunderground v.1.15,2013-02-03 03:23:00,
2013-02-02 22:29:00,66.5,59.4,31.13,NNE,13,1.0,3.0,78,0.00,,,0.00,Wunderground v.1.15,2013-02-03 03:29:00,
2013-02-02 22:35:00,66.6,59.9,31.13,NNE,30,1.0,3.0,79,0.00,,,0.00,Wunderground v.1.15,2013-02-03 03:35:00,
2013-02-02 22:41:00,66.5,60.1,31.13,ENE,63,1.0,3.0,80,0.00,,,0.00,Wunderground v.1.15,2013-02-03 03:41:00,
2013-02-02 22:47:00,66.4,60.0,31.13,NNE,23,1.0,3.0,80,0.00,,,0.00,Wunderground v.1.15,2013-02-03 03:47:00,
2013-02-02 22:52:00,66.4,59.7,31.13,North,354,1.0,3.0,79,0.00,,,0.00,Wunderground v.1.15,2013-02-03 03:52:00,
2013-02-02 22:58:00,66.4,59.7,31.13,North,8,1.0,3.0,79,0.00,,,0.00,Wunderground v.1.15,2013-02-03 03:58:00,
2013-02-02 23:04:00,66.4,59.7,31.12,NNE,32,1.0,3.0,79,0.00,,,0.00,Wunderground v.1.15,2013-02-03 04:04:00,
2013-02-02 23:10:00,66.4,59.7,31.13,North,10,1.0,3.0,79,0.00,,,0.00,Wunderground v.1.15,2013-02-03 04:10:00,
2013-02-02 23:15:00,66.4,59.7,31.12,ENE,72,1.0,3.0,79,0.00,,,0.00,Wunderground v.1.15,2013-02-03 04:15:00,
2013-02-02 23:21:00,66.3,59.9,31.12,East,84,0.0,3.0,80,0.00,,,0.00,Wunderground v.1.15,2013-02-03 04:21:00,
2013-02-02 23:27:00,66.1,59.7,31.11,NNE,26,0.0,3.0,80,0.00,,,0.00,Wunderground v.1.15,2013-02-03 04:27:00,
2013-02-02 23:33:00,66.0,60.0,31.11,East,92,0.0,3.0,81,0.00,,,0.00,Wunderground v.1.15,2013-02-03 04:33:00,
2013-02-02 23:39:00,65.9,59.9,31.11,NE,44,0.0,3.0,81,0.00,,,0.00,Wunderground v.1.15,2013-02-03 04:39:00,
2013-02-02 23:45:00,65.7,59.7,31.10,ESE,107,0.0,3.0,81,0.00,,,0.00,Wunderground v.1.15,2013-02-03 04:45:00,
2013-02-02 23:51:00,65.6,59.6,31.10,North,4,0.0,3.0,81,0.00,,,0.00,Wunderground v.1.15,2013-02-03 04:51:00,
2013-02-02 23:56:00,65.6,59.6,31.09,East,84,0.0,3.0,81,0.00,,,0.00,Wunderground v.1.15,2013-02-03 04:56:00,